Time;durP1;ratioP1;P1;durP2;ratioP2;P2;SDS_P1;SDS_P2;PMS_P1;PMS_P2;Temp;Humidity;BMP_temperature;BMP_pressure;BME280_temperature;BME280_humidity;BME280_pressure;Samples;Min_cycle;Max_cycle;Signal;HPM_P1;HPM_P2
2024/01/05 00:01:52;;;;;;;;;;;17.80;50.30;;;;;;1595919;74;724;-71
2024/01/05 00:03:54;;;;;;;;;;;17.80;50.30;;;;;;1578443;74;1592;-72
2024/01/05 00:05:56;;;;;;;;;;;17.80;50.20;;;;;;1575005;74;1136;-69
2024/01/05 00:07:57;;;;;;;;;;;17.90;50.30;;;;;;1566220;74;816;-71
2024/01/05 00:09:59;;;;;;;;;;;17.90;50.30;;;;;;1580744;74;1957;-72
2024/01/05 00:12:03;;;;;;;;;;;17.80;50.10;;;;;;1584357;74;739;-68
2024/01/05 00:14:05;;;;;;;;;;;17.80;50.20;;;;;;1588105;74;1505;-70
2024/01/05 00:16:07;;;;;;;;;;;17.80;50.10;;;;;;1587264;73;1147;-69
2024/01/05 00:18:09;;;;;;;;;;;17.80;50.10;;;;;;1590213;74;1638;-72
2024/01/05 00:20:11;;;;;;;;;;;17.90;50.20;;;;;;1584022;74;749;-70
2024/01/05 00:22:13;;;;;;;;;;;17.80;50.00;;;;;;1582604;74;528;-70
2024/01/05 00:24:15;;;;;;;;;;;17.80;50.00;;;;;;1584574;73;806;-70
2024/01/05 00:26:17;;;;;;;;;;;17.80;50.00;;;;;;1580479;73;1158;-72
2024/01/05 00:28:19;;;;;;;;;;;17.80;49.90;;;;;;1577996;74;741;-68
2024/01/05 00:30:21;;;;;;;;;;;17.90;50.00;;;;;;1586732;74;1942;-72
2024/01/05 00:32:23;;;;;;;;;;;17.80;49.80;;;;;;1584026;74;1607;-71
2024/01/05 00:34:25;;;;;;;;;;;17.80;49.80;;;;;;1582224;73;605;-71
2024/01/05 00:36:27;;;;;;;;;;;17.90;49.90;;;;;;1579721;74;1136;-71
2024/01/05 00:38:28;;;;;;;;;;;17.80;49.80;;;;;;1590840;73;725;-71
2024/01/05 00:40:30;;;;;;;;;;;17.80;49.70;;;;;;1574356;74;774;-71
2024/01/05 00:42:32;;;;;;;;;;;17.80;49.70;;;;;;1581939;74;733;-72
2024/01/05 00:44:34;;;;;;;;;;;17.80;49.70;;;;;;1585482;74;709;-72
2024/01/05 00:46:37;;;;;;;;;;;17.80;49.60;;;;;;1576636;74;1620;-72
2024/01/05 00:48:39;;;;;;;;;;;17.80;49.50;;;;;;1589917;74;1514;-71
2024/01/05 00:50:41;;;;;;;;;;;17.80;49.50;;;;;;1575200;74;1926;-69
2024/01/05 00:52:43;;;;;;;;;;;17.80;49.50;;;;;;1584501;74;791;-69
2024/01/05 00:54:45;;;;;;;;;;;17.80;49.40;;;;;;1586754;74;792;-70
2024/01/05 00:56:47;;;;;;;;;;;17.80;49.40;;;;;;1587766;74;1156;-66
2024/01/05 00:58:49;;;;;;;;;;;17.80;49.40;;;;;;1586578;74;758;-72
2024/01/05 01:00:51;;;;;;;;;;;17.80;49.40;;;;;;1582638;74;1537;-71
2024/01/05 01:02:53;;;;;;;;;;;17.80;49.30;;;;;;1572788;74;729;-71
2024/01/05 01:04:54;;;;;;;;;;;17.80;49.40;;;;;;1589628;74;684;-71
2024/01/05 01:06:56;;;;;;;;;;;17.80;49.30;;;;;;1588786;73;1063;-72
2024/01/05 01:08:58;;;;;;;;;;;17.80;49.30;;;;;;1575312;74;716;-71
2024/01/05 01:11:01;;;;;;;;;;;17.80;49.20;;;;;;1589981;74;1956;-72
2024/01/05 01:13:03;;;;;;;;;;;17.80;49.20;;;;;;1580565;74;786;-72
2024/01/05 01:15:06;;;;;;;;;;;17.80;49.20;;;;;;1571105;74;1466;-66
2024/01/05 01:17:08;;;;;;;;;;;17.80;49.10;;;;;;1588345;73;1040;-72
2024/01/05 01:19:10;;;;;;;;;;;17.80;49.10;;;;;;1582005;73;712;-71
2024/01/05 01:21:12;;;;;;;;;;;17.80;49.10;;;;;;1586691;74;810;-70
2024/01/05 01:23:14;;;;;;;;;;;17.80;49.10;;;;;;1586022;74;779;-69
2024/01/05 01:25:16;;;;;;;;;;;17.80;49.10;;;;;;1585073;73;1150;-72
2024/01/05 01:27:18;;;;;;;;;;;17.80;48.90;;;;;;1592219;74;686;-70
2024/01/05 01:29:20;;;;;;;;;;;17.80;48.90;;;;;;1589320;74;1921;-69
2024/01/05 01:31:22;;;;;;;;;;;17.80;48.90;;;;;;1577609;74;603;-72
2024/01/05 01:33:24;;;;;;;;;;;17.80;48.90;;;;;;1578579;74;645;-69
2024/01/05 01:35:25;;;;;;;;;;;17.80;48.90;;;;;;1594087;74;1153;-68
2024/01/05 01:37:27;;;;;;;;;;;17.80;48.80;;;;;;1585233;74;661;-72
2024/01/05 01:39:30;;;;;;;;;;;17.80;48.80;;;;;;1581833;74;709;-67
2024/01/05 01:41:32;;;;;;;;;;;17.80;48.80;;;;;;1578375;74;597;-71
2024/01/05 01:43:34;;;;;;;;;;;17.80;48.70;;;;;;1573076;74;1554;-71
2024/01/05 01:45:36;;;;;;;;;;;17.80;48.70;;;;;;1589605;74;1085;-69
2024/01/05 01:47:38;;;;;;;;;;;17.80;48.70;;;;;;1580492;74;743;-69
2024/01/05 01:49:40;;;;;;;;;;;17.80;48.70;;;;;;1588103;74;1925;-69
2024/01/05 01:51:42;;;;;;;;;;;17.70;48.70;;;;;;1573682;73;813;-69
2024/01/05 01:53:44;;;;;;;;;;;17.80;48.60;;;;;;1587583;74;696;-71
2024/01/05 01:55:47;;;;;;;;;;;17.80;48.60;;;;;;1580231;74;1132;-68
2024/01/05 01:57:49;;;;;;;;;;;17.80;48.50;;;;;;1581381;74;708;-72
2024/01/05 01:59:50;;;;;;;;;;;17.80;48.50;;;;;;1583757;74;668;-71
2024/01/05 02:01:52;;;;;;;;;;;17.80;48.50;;;;;;1583300;74;667;-72
2024/01/05 02:03:54;;;;;;;;;;;17.80;48.40;;;;;;1585400;74;663;-72
2024/01/05 02:05:56;;;;;;;;;;;17.70;48.40;;;;;;1582197;74;1130;-71
2024/01/05 02:07:58;;;;;;;;;;;17.70;48.40;;;;;;1585947;74;812;-68
2024/01/05 02:10:00;;;;;;;;;;;17.70;48.40;;;;;;1576888;74;1937;-68
2024/01/05 02:12:02;;;;;;;;;;;17.70;48.40;;;;;;1576305;74;761;-69
2024/01/05 02:14:04;;;;;;;;;;;17.80;48.30;;;;;;1579285;74;770;-71
2024/01/05 02:16:05;;;;;;;;;;;17.70;48.30;;;;;;1592521;72;1150;-71
2024/01/05 02:18:12;;;;;;;;;;;17.70;48.30;;;;;;1579517;74;732;-69
2024/01/05 02:20:14;;;;;;;;;;;17.70;48.20;;;;;;1587366;73;1576;-70
2024/01/05 02:22:16;;;;;;;;;;;17.70;48.20;;;;;;1589682;74;755;-71
2024/01/05 02:24:18;;;;;;;;;;;17.70;48.20;;;;;;1594329;74;1536;-71
2024/01/05 02:26:20;;;;;;;;;;;17.80;48.20;;;;;;1587090;74;1149;-68
2024/01/05 02:28:22;;;;;;;;;;;17.80;48.10;;;;;;1599157;74;788;-68
2024/01/05 02:30:24;;;;;;;;;;;17.70;48.10;;;;;;1595854;74;1948;-72
2024/01/05 02:32:26;;;;;;;;;;;17.70;48.00;;;;;;1592246;74;725;-71
2024/01/05 02:34:28;;;;;;;;;;;17.80;48.00;;;;;;1582815;74;732;-73
2024/01/05 02:36:29;;;;;;;;;;;17.70;48.10;;;;;;1585299;73;1087;-72
2024/01/05 02:38:31;;;;;;;;;;;17.80;47.90;;;;;;1587923;74;1570;-68
2024/01/05 02:40:34;;;;;;;;;;;17.70;47.90;;;;;;1581133;74;690;-71
2024/01/05 02:42:35;;;;;;;;;;;17.70;47.90;;;;;;1588710;74;740;-68
2024/01/05 02:44:37;;;;;;;;;;;17.70;47.90;;;;;;1582065;74;719;-72
2024/01/05 02:46:39;;;;;;;;;;;17.80;47.90;;;;;;1587696;74;1173;-71
2024/01/05 02:48:41;;;;;;;;;;;17.70;47.90;;;;;;1576177;74;759;-69
2024/01/05 02:50:43;;;;;;;;;;;17.70;47.90;;;;;;1580897;74;1941;-71
2024/01/05 02:52:45;;;;;;;;;;;17.70;47.80;;;;;;1590507;74;1540;-72
2024/01/05 02:54:47;;;;;;;;;;;17.80;47.80;;;;;;1577468;74;752;-72
2024/01/05 02:56:50;;;;;;;;;;;17.70;47.80;;;;;;1587062;73;1087;-72
2024/01/05 02:58:52;;;;;;;;;;;17.80;47.80;;;;;;1589741;74;656;-70
2024/01/05 03:00:54;;;;;;;;;;;17.80;47.80;;;;;;1570552;74;697;-69
2024/01/05 03:02:56;;;;;;;;;;;17.70;47.80;;;;;;1579949;74;853;-71
2024/01/05 03:04:58;;;;;;;;;;;17.70;47.80;;;;;;1580853;73;617;-71
2024/01/05 03:07:00;;;;;;;;;;;17.70;47.80;;;;;;1572640;74;1523;-69
2024/01/05 03:09:02;;;;;;;;;;;17.70;47.80;;;;;;1586701;74;753;-72
2024/01/05 03:11:04;;;;;;;;;;;17.70;47.80;;;;;;1585153;73;1945;-71
2024/01/05 03:13:06;;;;;;;;;;;17.70;47.80;;;;;;1587253;74;636;-71
2024/01/05 03:15:08;;;;;;;;;;;17.70;47.80;;;;;;1575392;74;731;-69
2024/01/05 03:17:10;;;;;;;;;;;17.70;47.80;;;;;;1590371;73;1095;-69
2024/01/05 03:19:12;;;;;;;;;;;17.70;47.80;;;;;;1589353;74;711;-71
2024/01/05 03:21:14;;;;;;;;;;;17.80;47.80;;;;;;1585712;74;1545;-70
2024/01/05 03:23:15;;;;;;;;;;;17.80;47.80;;;;;;1587453;74;773;-71
2024/01/05 03:25:17;;;;;;;;;;;17.80;47.70;;;;;;1583134;73;1156;-70
2024/01/05 03:27:20;;;;;;;;;;;17.80;47.80;;;;;;1583032;74;751;-69
2024/01/05 03:29:21;;;;;;;;;;;17.70;47.70;;;;;;1574906;74;800;-72
2024/01/05 03:31:25;;;;;;;;;;;17.70;47.70;;;;;;1586065;74;1949;-71
2024/01/05 03:33:27;;;;;;;;;;;17.70;47.70;;;;;;1585764;73;1381;-72
2024/01/05 03:35:29;;;;;;;;;;;17.80;47.60;;;;;;1579701;74;1525;-71
2024/01/05 03:37:31;;;;;;;;;;;17.70;47.60;;;;;;1575075;74;735;-72
2024/01/05 03:39:33;;;;;;;;;;;17.70;47.40;;;;;;1580190;74;636;-72
2024/01/05 03:41:35;;;;;;;;;;;17.80;47.40;;;;;;1589653;74;728;-72
2024/01/05 03:43:36;;;;;;;;;;;17.80;47.50;;;;;;1583480;74;621;-72
2024/01/05 03:45:38;;;;;;;;;;;17.80;47.40;;;;;;1592394;72;1151;-72
2024/01/05 03:47:40;;;;;;;;;;;17.80;47.40;;;;;;1576572;73;742;-71
2024/01/05 03:49:42;;;;;;;;;;;17.80;47.40;;;;;;1582834;74;1381;-70
2024/01/05 03:51:44;;;;;;;;;;;17.80;47.40;;;;;;1578069;74;1946;-72
2024/01/05 03:53:46;;;;;;;;;;;17.80;47.40;;;;;;1584950;75;609;-69
2024/01/05 03:55:48;;;;;;;;;;;17.80;47.20;;;;;;1585820;73;1142;-71
2024/01/05 03:57:50;;;;;;;;;;;17.70;47.30;;;;;;1579673;74;737;-69
2024/01/05 03:59:52;;;;;;;;;;;17.80;47.30;;;;;;1581149;74;672;-68
2024/01/05 04:01:53;;;;;;;;;;;17.80;47.30;;;;;;1579727;74;746;-70
2024/01/05 04:03:57;;;;;;;;;;;17.80;47.10;;;;;;1580754;74;1590;-72
2024/01/05 04:05:59;;;;;;;;;;;17.80;47.10;;;;;;1577177;74;1181;-71
2024/01/05 04:08:01;;;;;;;;;;;17.80;47.10;;;;;;1583859;74;682;-72
2024/01/05 04:10:03;;;;;;;;;;;17.80;47.10;;;;;;1550885;74;792;-71
2024/01/05 04:12:05;;;;;;;;;;;17.80;47.10;;;;;;1586867;74;1939;-71
2024/01/05 04:14:06;;;;;;;;;;;17.80;47.00;;;;;;1589136;74;734;-70
2024/01/05 04:16:08;;;;;;;;;;;17.80;47.00;;;;;;1583535;73;1136;-71
2024/01/05 04:18:10;;;;;;;;;;;17.70;47.10;;;;;;1575637;73;1274;-70
2024/01/05 04:20:12;;;;;;;;;;;17.80;47.00;;;;;;1588064;74;768;-69
2024/01/05 04:22:14;;;;;;;;;;;17.70;47.00;;;;;;1583784;74;621;-69
2024/01/05 04:24:16;;;;;;;;;;;17.80;47.00;;;;;;1586017;74;848;-69
2024/01/05 04:26:18;;;;;;;;;;;17.70;47.00;;;;;;1593508;72;1110;-70
2024/01/05 04:28:20;;;;;;;;;;;17.80;46.90;;;;;;1584468;74;703;-70
2024/01/05 04:30:24;;;;;;;;;;;17.80;46.90;;;;;;1592916;73;1917;-71
2024/01/05 04:32:25;;;;;;;;;;;17.70;46.90;;;;;;1584372;74;1533;-70
2024/01/05 04:34:27;;;;;;;;;;;17.70;46.90;;;;;;1587512;74;746;-71
2024/01/05 04:36:29;;;;;;;;;;;17.80;46.90;;;;;;1576895;74;1125;-71
2024/01/05 04:38:34;;;;;;;;;;;17.80;46.80;;;;;;1587383;74;560;-69
2024/01/05 04:40:35;;;;;;;;;;;17.70;46.80;;;;;;1584303;74;1689;-69
2024/01/05 04:42:37;;;;;;;;;;;17.80;46.90;;;;;;1576893;74;671;-72
2024/01/05 04:44:39;;;;;;;;;;;17.80;46.80;;;;;;1588106;74;1531;-71
2024/01/05 04:46:41;;;;;;;;;;;17.80;46.90;;;;;;1571894;74;1128;-70
2024/01/05 04:48:42;;;;;;;;;;;17.80;46.90;;;;;;1595309;74;662;-71
2024/01/05 04:50:44;;;;;;;;;;;17.80;46.80;;;;;;1581455;74;1937;-69
2024/01/05 04:52:46;;;;;;;;;;;17.80;46.80;;;;;;1583560;74;800;-71
2024/01/05 04:54:48;;;;;;;;;;;17.80;46.80;;;;;;1595925;74;652;-72
2024/01/05 04:56:50;;;;;;;;;;;17.70;46.70;;;;;;1592156;74;1137;-69
2024/01/05 04:58:52;;;;;;;;;;;17.80;46.80;;;;;;1576786;74;1555;-69
2024/01/05 05:00:54;;;;;;;;;;;17.70;46.60;;;;;;1582281;74;674;-69
2024/01/05 05:02:56;;;;;;;;;;;17.80;46.80;;;;;;1575902;74;835;-68
2024/01/05 05:04:58;;;;;;;;;;;17.80;46.70;;;;;;1581798;74;761;-68
2024/01/05 05:06:59;;;;;;;;;;;17.80;46.70;;;;;;1575932;74;1117;-72
2024/01/05 05:09:02;;;;;;;;;;;17.80;46.60;;;;;;1591055;73;704;-67
2024/01/05 05:11:04;;;;;;;;;;;17.80;46.70;;;;;;1580771;74;1921;-72
2024/01/05 05:13:06;;;;;;;;;;;17.80;46.70;;;;;;1583448;73;1552;-69
2024/01/05 05:15:10;;;;;;;;;;;17.70;46.70;;;;;;1574209;74;786;-70
2024/01/05 05:17:12;;;;;;;;;;;17.80;46.60;;;;;;1574005;74;1135;-67
2024/01/05 05:19:13;;;;;;;;;;;17.70;46.60;;;;;;1575059;74;536;-70
2024/01/05 05:21:16;;;;;;;;;;;17.70;46.60;;;;;;1583263;73;773;-67
2024/01/05 05:23:17;;;;;;;;;;;17.70;46.70;;;;;;1585715;74;777;-71
2024/01/05 05:25:19;;;;;;;;;;;17.80;46.50;;;;;;1578880;74;1173;-70
2024/01/05 05:27:21;;;;;;;;;;;17.70;46.50;;;;;;1583966;74;1558;-70
2024/01/05 05:29:23;;;;;;;;;;;17.70;46.50;;;;;;1591833;74;779;-71
2024/01/05 05:31:25;;;;;;;;;;;17.80;46.50;;;;;;1589620;73;1929;-70
2024/01/05 05:33:27;;;;;;;;;;;17.70;46.50;;;;;;1593656;74;774;-72
2024/01/05 05:35:29;;;;;;;;;;;17.70;46.40;;;;;;1580112;74;1080;-71
2024/01/05 05:37:30;;;;;;;;;;;17.70;46.50;;;;;;1590393;74;763;-71
2024/01/05 05:39:32;;;;;;;;;;;17.80;46.50;;;;;;1580573;74;731;-71
2024/01/05 05:41:34;;;;;;;;;;;17.70;46.40;;;;;;1586952;74;1582;-69
2024/01/05 05:43:36;;;;;;;;;;;17.70;46.50;;;;;;1587355;74;712;-68
2024/01/05 05:45:38;;;;;;;;;;;17.70;46.50;;;;;;1583785;74;1160;-69
2024/01/05 05:47:40;;;;;;;;;;;17.70;46.40;;;;;;1583344;74;729;-72
2024/01/05 05:49:42;;;;;;;;;;;17.70;46.40;;;;;;1576994;74;644;-69
2024/01/05 05:51:44;;;;;;;;;;;17.70;46.40;;;;;;1576292;74;1938;-71
2024/01/05 05:53:46;;;;;;;;;;;17.70;46.50;;;;;;1580300;74;760;-72
2024/01/05 05:55:48;;;;;;;;;;;17.70;46.50;;;;;;1585669;73;1349;-72
2024/01/05 05:57:50;;;;;;;;;;;17.70;46.30;;;;;;1580657;74;722;-69
2024/01/05 05:59:52;;;;;;;;;;;17.70;46.30;;;;;;1583263;74;674;-68
2024/01/05 06:01:54;;;;;;;;;;;17.70;46.30;;;;;;1581660;74;826;-70
2024/01/05 06:03:56;;;;;;;;;;;17.80;46.30;;;;;;1584185;74;786;-69
2024/01/05 06:05:58;;;;;;;;;;;17.70;46.30;;;;;;1578576;73;1197;-70
2024/01/05 06:08:00;;;;;;;;;;;17.80;46.30;;;;;;1595897;74;584;-68
2024/01/05 06:10:02;;;;;;;;;;;17.70;46.30;;;;;;1594371;74;1526;-69
2024/01/05 06:12:04;;;;;;;;;;;17.70;46.20;;;;;;1588714;74;1934;-71
2024/01/05 06:14:06;;;;;;;;;;;17.70;46.20;;;;;;1587242;73;671;-72
2024/01/05 06:16:08;;;;;;;;;;;17.60;46.00;;;;;;1577967;73;1128;-70
2024/01/05 06:18:10;;;;;;;;;;;17.70;46.20;;;;;;1587243;74;777;-72
2024/01/05 06:20:12;;;;;;;;;;;17.70;46.10;;;;;;1582917;74;756;-72
2024/01/05 06:22:14;;;;;;;;;;;17.70;46.20;;;;;;1576098;74;676;-68
2024/01/05 06:24:16;;;;;;;;;;;17.70;46.10;;;;;;1586053;74;1531;-68
2024/01/05 06:26:18;;;;;;;;;;;17.70;46.10;;;;;;1585522;74;1135;-71
2024/01/05 06:28:20;;;;;;;;;;;17.70;46.10;;;;;;1576588;74;825;-72
2024/01/05 06:30:22;;;;;;;;;;;17.70;46.10;;;;;;1583466;73;687;-72
2024/01/05 06:32:24;;;;;;;;;;;17.80;46.10;;;;;;1590166;74;1925;-69
2024/01/05 06:34:25;;;;;;;;;;;17.70;46.00;;;;;;1584915;74;732;-69
2024/01/05 06:36:27;;;;;;;;;;;17.70;46.00;;;;;;1582345;74;1128;-69
2024/01/05 06:38:29;;;;;;;;;;;17.70;46.00;;;;;;1571913;74;1380;-71
2024/01/05 06:40:31;;;;;;;;;;;17.70;46.00;;;;;;1586500;74;720;-72
2024/01/05 06:42:33;;;;;;;;;;;17.70;46.00;;;;;;1588584;74;795;-71
2024/01/05 06:44:35;;;;;;;;;;;17.70;45.90;;;;;;1587797;74;792;-72
2024/01/05 06:46:37;;;;;;;;;;;17.70;46.00;;;;;;1578849;74;1152;-72
2024/01/05 06:48:39;;;;;;;;;;;17.70;45.90;;;;;;1585577;74;736;-72
2024/01/05 06:50:40;;;;;;;;;;;17.70;45.80;;;;;;1580739;74;661;-72
2024/01/05 06:52:43;;;;;;;;;;;17.70;45.80;;;;;;1577551;74;1943;-70
2024/01/05 06:54:45;;;;;;;;;;;17.70;45.90;;;;;;1569421;74;707;-72
2024/01/05 06:56:46;;;;;;;;;;;17.70;45.80;;;;;;1567008;73;1122;-69
2024/01/05 06:58:48;;;;;;;;;;;17.70;45.80;;;;;;1581846;74;912;-71
2024/01/05 07:00:50;;;;;;;;;;;17.70;45.80;;;;;;1586056;74;682;-70
2024/01/05 07:02:52;;;;;;;;;;;17.70;45.80;;;;;;1578445;74;712;-72
2024/01/05 07:04:54;;;;;;;;;;;17.70;45.80;;;;;;1578699;74;704;-72
2024/01/05 07:06:56;;;;;;;;;;;17.70;45.80;;;;;;1574861;73;1537;-68
2024/01/05 07:08:58;;;;;;;;;;;17.60;45.70;;;;;;1582889;74;939;-70
2024/01/05 07:11:00;;;;;;;;;;;17.70;45.80;;;;;;1588370;74;701;-70
2024/01/05 07:13:02;;;;;;;;;;;17.60;45.60;;;;;;1593173;73;1920;-72
2024/01/05 07:15:04;;;;;;;;;;;17.60;45.60;;;;;;1542178;74;1011;-69
2024/01/05 07:17:06;;;;;;;;;;;17.70;45.70;;;;;;1574892;73;1102;-69
2024/01/05 07:19:08;;;;;;;;;;;17.60;45.50;;;;;;1578147;74;738;-68
2024/01/05 07:21:10;;;;;;;;;;;17.70;45.70;;;;;;1586819;74;1679;-71
2024/01/05 07:23:12;;;;;;;;;;;17.70;45.70;;;;;;1582165;74;655;-71
2024/01/05 07:25:14;;;;;;;;;;;17.70;45.50;;;;;;1586014;74;712;-69
2024/01/05 07:27:16;;;;;;;;;;;17.60;45.50;;;;;;1581933;74;1295;-69
2024/01/05 07:29:18;;;;;;;;;;;17.70;45.60;;;;;;1589253;74;731;-71
2024/01/05 07:31:23;;;;;;;;;;;17.70;45.60;;;;;;1583743;74;751;-72
2024/01/05 07:33:25;;;;;;;;;;;17.60;45.50;;;;;;1583199;74;1327;-71
2024/01/05 07:35:26;;;;;;;;;;;17.60;45.50;;;;;;1579660;74;1126;-70
2024/01/05 07:37:28;;;;;;;;;;;17.70;45.60;;;;;;1585812;74;703;-69
2024/01/05 07:39:30;;;;;;;;;;;17.70;45.50;;;;;;1584130;74;810;-72
2024/01/05 07:41:32;;;;;;;;;;;17.70;45.50;;;;;;1583741;74;586;-69
2024/01/05 07:43:34;;;;;;;;;;;17.60;45.50;;;;;;1589716;73;789;-69
2024/01/05 07:45:36;;;;;;;;;;;17.70;45.50;;;;;;1590049;72;1138;-72
2024/01/05 07:47:38;;;;;;;;;;;17.60;45.40;;;;;;1578279;74;1521;-69
2024/01/05 07:49:40;;;;;;;;;;;17.70;45.50;;;;;;1586352;74;801;-71
2024/01/05 07:51:42;;;;;;;;;;;17.60;45.30;;;;;;1582417;74;1932;-70
2024/01/05 07:53:44;;;;;;;;;;;17.70;45.50;;;;;;1587152;74;659;-70
2024/01/05 07:55:46;;;;;;;;;;;17.70;45.50;;;;;;1585864;73;1134;-71
2024/01/05 07:57:48;;;;;;;;;;;17.70;45.50;;;;;;1580947;74;783;-69
2024/01/05 07:59:50;;;;;;;;;;;17.70;45.50;;;;;;1582563;74;797;-70
2024/01/05 08:01:52;;;;;;;;;;;17.60;45.40;;;;;;1592596;74;1561;-71
2024/01/05 08:03:54;;;;;;;;;;;17.60;45.30;;;;;;1578498;74;735;-71
2024/01/05 08:05:56;;;;;;;;;;;17.70;45.50;;;;;;1578920;74;1159;-71
2024/01/05 08:07:58;;;;;;;;;;;17.60;45.30;;;;;;1588165;74;584;-69
2024/01/05 08:10:00;;;;;;;;;;;17.60;45.30;;;;;;1588073;74;803;-68
2024/01/05 08:12:02;;;;;;;;;;;17.60;45.30;;;;;;1584932;74;1915;-69
2024/01/05 08:14:07;;;;;;;;;;;17.70;45.30;;;;;;1586905;74;724;-70
2024/01/05 08:16:08;;;;;;;;;;;17.60;45.20;;;;;;1580792;73;1677;-71
2024/01/05 08:18:11;;;;;;;;;;;17.60;45.20;;;;;;1574223;73;790;-68
2024/01/05 08:20:12;;;;;;;;;;;17.60;45.20;;;;;;1588127;74;681;-70
2024/01/05 08:22:14;;;;;;;;;;;17.60;45.40;;;;;;1585589;74;718;-71
2024/01/05 08:24:16;;;;;;;;;;;17.60;45.20;;;;;;1588124;74;783;-72
2024/01/05 08:26:18;;;;;;;;;;;17.60;45.20;;;;;;1583948;74;1153;-72
2024/01/05 08:28:20;;;;;;;;;;;17.60;45.30;;;;;;1584509;74;729;-70
2024/01/05 08:30:22;;;;;;;;;;;17.60;45.20;;;;;;1584090;74;1526;-71
2024/01/05 08:32:24;;;;;;;;;;;17.60;45.20;;;;;;1588177;74;1930;-70
2024/01/05 08:34:26;;;;;;;;;;;17.60;45.20;;;;;;1581618;74;869;-71
2024/01/05 08:36:28;;;;;;;;;;;17.60;45.20;;;;;;1587233;74;1077;-68
2024/01/05 08:38:30;;;;;;;;;;;17.70;45.20;;;;;;1578349;74;668;-71
2024/01/05 08:40:32;;;;;;;;;;;17.70;45.20;;;;;;1586759;74;743;-69
2024/01/05 08:42:34;;;;;;;;;;;17.60;45.30;;;;;;1584412;74;748;-69
2024/01/05 08:44:36;;;;;;;;;;;17.60;45.10;;;;;;1596510;74;1555;-68
2024/01/05 08:46:37;;;;;;;;;;;17.60;45.00;;;;;;1584314;74;1085;-72
2024/01/05 08:48:39;;;;;;;;;;;17.60;45.00;;;;;;1594525;74;700;-67
2024/01/05 08:50:41;;;;;;;;;;;17.60;45.10;;;;;;1587237;74;713;-69
2024/01/05 08:52:44;;;;;;;;;;;17.60;45.00;;;;;;1584317;73;1937;-67
2024/01/05 08:54:45;;;;;;;;;;;17.60;45.10;;;;;;1570479;74;818;-72
2024/01/05 08:56:47;;;;;;;;;;;17.60;45.10;;;;;;1583451;73;1139;-68
2024/01/05 08:58:50;;;;;;;;;;;17.60;45.00;;;;;;1590076;74;1569;-72
2024/01/05 09:00:52;;;;;;;;;;;17.60;45.00;;;;;;1586635;74;730;-70
2024/01/05 09:02:53;;;;;;;;;;;17.60;45.00;;;;;;1574421;74;718;-70
2024/01/05 09:04:57;;;;;;;;;;;17.60;45.00;;;;;;1586132;73;796;-68
2024/01/05 09:06:59;;;;;;;;;;;17.60;45.20;;;;;;1576289;73;1189;-72
2024/01/05 09:09:01;;;;;;;;;;;17.60;45.10;;;;;;1586828;74;835;-71
2024/01/05 09:11:04;;;;;;;;;;;17.60;45.00;;;;;;1586063;74;787;-66
2024/01/05 09:13:06;;;;;;;;;;;17.60;45.00;;;;;;1579583;74;1921;-72
2024/01/05 09:15:08;;;;;;;;;;;17.60;45.00;;;;;;1585537;73;776;-71
2024/01/05 09:17:10;;;;;;;;;;;17.60;45.00;;;;;;1573406;74;1096;-71
2024/01/05 09:19:13;;;;;;;;;;;17.60;45.10;;;;;;1576558;74;743;-72
2024/01/05 09:21:16;;;;;;;;;;;17.60;44.90;;;;;;1584805;74;788;-71
2024/01/05 09:23:17;;;;;;;;;;;17.60;44.90;;;;;;1574352;74;728;-69
2024/01/05 09:25:19;;;;;;;;;;;17.60;45.00;;;;;;1581256;74;1172;-71
2024/01/05 09:27:21;;;;;;;;;;;17.60;45.10;;;;;;1586777;74;1534;-70
2024/01/05 09:29:23;;;;;;;;;;;17.50;44.90;;;;;;1551248;74;859;-69
2024/01/05 09:31:25;;;;;;;;;;;17.60;45.00;;;;;;1574938;74;919;-69
2024/01/05 09:33:27;;;;;;;;;;;17.10;44.70;;;;;;1575382;74;1978;-72
2024/01/05 09:35:29;;;;;;;;;;;17.60;44.90;;;;;;1581571;74;1134;-71
2024/01/05 09:37:31;;;;;;;;;;;17.60;45.00;;;;;;1586765;74;574;-72
2024/01/05 09:39:33;;;;;;;;;;;17.60;44.90;;;;;;1574345;74;739;-71
2024/01/05 09:41:34;;;;;;;;;;;17.60;44.70;;;;;;1586974;74;1462;-70
2024/01/05 09:43:36;;;;;;;;;;;17.60;44.80;;;;;;1584929;74;720;-72
2024/01/05 09:45:38;;;;;;;;;;;17.50;44.80;;;;;;1591928;72;1142;-70
2024/01/05 09:47:40;;;;;;;;;;;17.60;44.70;;;;;;1588087;74;739;-69
2024/01/05 09:49:44;;;;;;;;;;;17.60;44.90;;;;;;1550621;74;1014;-69
2024/01/05 09:51:46;;;;;;;;;;;17.60;44.80;;;;;;1585700;74;1674;-72
2024/01/05 09:53:48;;;;;;;;;;;17.60;44.80;;;;;;1581674;74;1915;-69
2024/01/05 09:55:50;;;;;;;;;;;17.60;44.90;;;;;;1585503;73;1697;-70
2024/01/05 09:57:52;;;;;;;;;;;17.60;44.80;;;;;;1587872;74;719;-70
2024/01/05 09:59:54;;;;;;;;;;;17.60;44.80;;;;;;1588049;74;795;-72
2024/01/05 10:01:56;;;;;;;;;;;17.60;45.00;;;;;;1588298;74;702;-71
2024/01/05 10:03:58;;;;;;;;;;;17.60;44.80;;;;;;1582421;74;740;-72
2024/01/05 10:06:00;;;;;;;;;;;17.60;44.80;;;;;;1583194;74;1193;-71
2024/01/05 10:08:04;;;;;;;;;;;17.50;44.70;;;;;;1598463;73;1538;-72
2024/01/05 10:10:08;;;;;;;;;;;17.60;44.80;;;;;;1580937;74;720;-70
2024/01/05 10:12:13;;;;;;;;;;;17.60;44.70;;;;;;1583935;74;759;-69
2024/01/05 10:14:15;;;;;;;;;;;17.60;44.80;;;;;;1579845;74;1925;-70
2024/01/05 10:16:19;;;;;;;;;;;17.60;44.70;;;;;;1587461;73;1153;-70
2024/01/05 10:18:21;;;;;;;;;;;17.60;44.80;;;;;;1585237;74;1707;-71
2024/01/05 10:20:22;;;;;;;;;;;17.50;44.80;;;;;;1592966;74;702;-71
2024/01/05 10:22:25;;;;;;;;;;;17.60;44.70;;;;;;1583484;74;1455;-72
2024/01/05 10:24:29;;;;;;;;;;;17.60;44.60;;;;;;1580362;73;594;-71
2024/01/05 10:26:33;;;;;;;;;;;17.60;44.70;;;;;;1570187;74;1501;-72
2024/01/05 10:28:37;;;;;;;;;;;17.60;44.70;;;;;;1588738;74;1141;-71
2024/01/05 10:30:37;;;;;;;;;;;17.60;44.70;;;;;;1582573;74;1675;-71
2024/01/05 10:32:39;;;;;;;;;;;17.50;44.80;;;;;;1582199;74;1935;-72
2024/01/05 10:34:41;;;;;;;;;;;17.50;44.70;;;;;;1579995;74;631;-72
2024/01/05 10:36:43;;;;;;;;;;;17.60;44.70;;;;;;1582535;74;1534;-69
2024/01/05 10:38:46;;;;;;;;;;;17.60;44.70;;;;;;1577016;74;765;-72
2024/01/05 10:40:48;;;;;;;;;;;17.50;44.70;;;;;;1583937;74;718;-72
2024/01/05 10:42:50;;;;;;;;;;;17.60;44.60;;;;;;1584760;74;733;-72
2024/01/05 10:44:53;;;;;;;;;;;17.60;44.70;;;;;;1583493;74;678;-69
2024/01/05 10:46:54;;;;;;;;;;;17.60;44.60;;;;;;1574254;73;1100;-72
2024/01/05 10:48:57;;;;;;;;;;;17.60;44.60;;;;;;1591205;73;867;-72
2024/01/05 10:50:58;;;;;;;;;;;17.50;44.70;;;;;;1572570;74;1365;-70
2024/01/05 10:53:01;;;;;;;;;;;17.60;44.60;;;;;;1585764;74;1949;-69
2024/01/05 10:55:03;;;;;;;;;;;17.60;44.70;;;;;;1580910;74;865;-71
2024/01/05 10:57:05;;;;;;;;;;;17.60;44.70;;;;;;1579972;74;1105;-66
2024/01/05 10:59:10;;;;;;;;;;;17.50;44.70;;;;;;1584325;74;735;-65
2024/01/05 11:01:11;;;;;;;;;;;17.50;44.80;;;;;;1580562;74;1645;-71
2024/01/05 11:03:17;;;;;;;;;;;17.60;44.70;;;;;;1580498;74;653;-71
2024/01/05 11:05:20;;;;;;;;;;;17.60;44.80;;;;;;1579939;74;1437;-69
2024/01/05 11:07:22;;;;;;;;;;;17.60;44.80;;;;;;1577907;74;743;-72
2024/01/05 11:09:28;;;;;;;;;;;17.60;44.90;;;;;;1582169;74;763;-72
2024/01/05 11:11:38;;;;;;;;;;;17.50;44.60;;;;;;1585889;74;823;-71
2024/01/05 11:13:57;;;;;;;;;;;17.60;44.70;;;;;;1588752;74;2048;-72
2024/01/05 11:16:12;;;;;;;;;;;17.50;44.70;;;;;;1584440;73;1172;-71
2024/01/05 11:18:32;;;;;;;;;;;17.60;44.70;;;;;;1588826;74;767;-71
2024/01/05 11:20:36;;;;;;;;;;;17.60;44.70;;;;;;1578898;74;739;-70
2024/01/05 11:22:38;;;;;;;;;;;17.60;44.70;;;;;;1576698;74;1879;-70
2024/01/05 11:24:40;;;;;;;;;;;17.60;44.60;;;;;;1585986;74;811;-73
2024/01/05 11:26:46;;;;;;;;;;;17.60;44.60;;;;;;1587956;73;1129;-69
2024/01/05 11:28:45;;;;;;;;;;;17.50;44.70;;;;;;1584789;74;1581;-71
2024/01/05 11:30:47;;;;;;;;;;;17.60;44.70;;;;;;1584420;74;786;-72
2024/01/05 11:32:49;;;;;;;;;;;17.60;44.60;;;;;;1589573;74;1583;-69
2024/01/05 11:34:51;;;;;;;;;;;17.60;44.70;;;;;;1576959;74;700;-69
2024/01/05 11:36:55;;;;;;;;;;;17.50;44.60;;;;;;1587471;74;1143;-69
2024/01/05 11:38:56;;;;;;;;;;;17.60;44.50;;;;;;1578178;74;744;-72
2024/01/05 11:40:59;;;;;;;;;;;17.50;44.50;;;;;;1589322;74;755;-71
2024/01/05 11:43:02;;;;;;;;;;;17.50;44.60;;;;;;1580095;74;727;-71
2024/01/05 11:45:07;;;;;;;;;;;17.60;44.50;;;;;;1566022;74;1043;-72
2024/01/05 11:47:09;;;;;;;;;;;17.60;44.60;;;;;;1586005;72;1958;-72
2024/01/05 11:49:11;;;;;;;;;;;17.60;44.60;;;;;;1594534;74;753;-71
2024/01/05 11:51:13;;;;;;;;;;;17.60;44.50;;;;;;1555096;75;1360;-71
2024/01/05 11:53:23;;;;;;;;;;;17.60;44.50;;;;;;1583927;73;1919;-71
2024/01/05 11:55:24;;;;;;;;;;;17.50;44.70;;;;;;1583003;73;1650;-70
2024/01/05 11:57:26;;;;;;;;;;;17.60;44.70;;;;;;1589556;74;791;-72
2024/01/05 11:59:28;;;;;;;;;;;17.60;44.50;;;;;;1575603;74;783;-71
2024/01/05 12:01:30;;;;;;;;;;;17.60;44.70;;;;;;1580194;74;1526;-72
2024/01/05 12:03:32;;;;;;;;;;;17.60;44.40;;;;;;1582940;74;717;-71
2024/01/05 12:05:34;;;;;;;;;;;17.60;44.60;;;;;;1583099;74;1162;-72
2024/01/05 12:07:36;;;;;;;;;;;17.60;44.50;;;;;;1587583;74;728;-72
2024/01/05 12:09:38;;;;;;;;;;;17.50;44.40;;;;;;1575119;74;671;-72